Time;durP1;ratioP1;P1;durP2;ratioP2;P2;SDS_P1;SDS_P2;PMS_P1;PMS_P2;Temp;Humidity;BMP_temperature;BMP_pressure;BME280_temperature;BME280_humidity;BME280_pressure;Samples;Min_cycle;Max_cycle;Signal;HPM_P1;HPM_P2
2022/05/01 00:00:40;;;;;;;24.30;15.23;;;;;;;8.63;76.44;102496.47;6185298;23;20080;-82
2022/05/01 00:03:06;;;;;;;24.55;15.68;;;;;;;8.61;76.93;102505.97;6185774;23;20427;-82
2022/05/01 00:05:32;;;;;;;25.42;15.00;;;;;;;8.60;76.69;102505.13;6185902;23;20411;-82
2022/05/01 00:07:58;;;;;;;20.50;14.35;;;;;;;8.32;77.64;102461.25;6185370;23;20068;-81
2022/05/01 00:10:24;;;;;;;23.85;15.18;;;;;;;8.27;78.24;102452.00;6185816;23;20445;-82
2022/05/01 00:12:49;;;;;;;23.90;15.93;;;;;;;8.51;77.83;102496.81;6185604;23;20012;-81
2022/05/01 00:15:15;;;;;;;26.95;15.75;;;;;;;8.48;77.86;102500.34;6185295;23;20423;-82
2022/05/01 00:17:40;;;;;;;24.92;15.98;;;;;;;8.43;77.14;102488.47;6185628;23;20124;-81
2022/05/01 00:20:06;;;;;;;22.83;15.63;;;;;;;8.48;77.36;102497.75;6185583;23;20001;-82
2022/05/01 00:22:31;;;;;;;26.15;16.00;;;;;;;8.53;77.66;102492.47;6185848;23;20322;-81
2022/05/01 00:24:57;;;;;;;26.60;16.05;;;;;;;8.38;77.63;102468.00;6185573;23;20011;-82
2022/05/01 00:27:22;;;;;;;27.25;16.38;;;;;;;8.49;77.66;102490.88;6185501;23;20492;-82
2022/05/01 00:29:48;;;;;;;27.27;16.42;;;;;;;8.48;77.72;102491.78;6185302;23;20487;-81
2022/05/01 00:32:13;;;;;;;25.58;16.15;;;;;;;8.21;77.50;102453.00;6185224;23;20005;-82
2022/05/01 00:37:22;;;;;;;24.73;15.70;;;;;;;8.41;77.89;102491.09;6185522;23;20346;-82
2022/05/01 00:39:56;;;;;;;26.45;16.40;;;;;;;6.95;77.72;102251.47;6184376;22;20021;-81
2022/05/01 00:42:33;;;;;;;27.17;17.55;;;;;;;6.90;77.16;102233.63;6184741;22;20013;-81
2022/05/01 00:47:43;;;;;;;27.83;16.60;;;;;;;6.90;77.10;102240.50;6185605;23;20525;-81
2022/05/01 00:50:22;;;;;;;26.42;16.33;;;;;;;7.92;77.04;102406.63;6185605;23;20005;-82
2022/05/01 00:52:54;;;;;;;25.60;15.93;;;;;;;6.92;77.14;102237.88;6185466;23;20001;-81
2022/05/01 00:55:20;;;;;;;27.67;18.58;;;;;;;8.39;77.42;102477.41;6184991;23;20005;-81
2022/05/01 00:58:08;;;;;;;27.15;17.15;;;;;;;8.33;78.38;102478.38;6185098;23;20001;-81
2022/05/01 01:00:42;;;;;;;27.23;17.48;;;;;;;7.83;77.71;102392.28;6185403;23;20008;-81
2022/05/01 01:03:10;;;;;;;31.75;17.67;;;;;;;7.30;77.71;102304.53;6185409;23;20028;-81
2022/05/01 01:05:36;;;;;;;30.02;17.60;;;;;;;8.31;78.36;102475.00;6185253;23;20032;-81
2022/05/01 01:08:19;;;;;;;27.73;18.08;;;;;;;7.72;77.89;102371.13;6185541;23;20017;-81
2022/05/01 01:11:00;;;;;;;30.25;17.23;;;;;;;6.89;77.97;102236.25;6186731;23;20007;-81
2022/05/01 01:13:29;;;;;;;31.70;17.83;;;;;;;6.92;78.95;102251.56;6187495;23;20011;-81
2022/05/01 01:15:57;;;;;;;29.77;18.33;;;;;;;7.97;79.10;102427.94;6186937;23;20059;-82
2022/05/01 01:18:42;;;;;;;29.08;18.23;;;;;;;7.65;79.03;102370.44;6186920;23;20088;-82
2022/05/01 01:21:24;;;;;;;31.40;18.23;;;;;;;7.74;78.44;102383.06;6187196;23;20008;-81
2022/05/01 01:24:10;;;;;;;27.17;17.90;;;;;;;8.28;78.19;102463.97;6141339;23;20013;-81
2022/05/01 01:26:44;;;;;;;26.65;17.52;;;;;;;6.71;77.85;102227.28;6104857;23;20021;-81
2022/05/01 01:32:17;;;;;;;32.53;19.40;;;;;;;6.74;78.08;102239.19;6188562;22;20032;-82
2022/05/01 01:35:10;;;;;;;32.50;18.83;;;;;;;8.17;78.43;102469.41;6187228;23;20009;-81
2022/05/01 01:37:35;;;;;;;29.63;17.75;;;;;;;7.08;78.41;102296.53;6186674;23;19997;-80
2022/05/01 01:40:45;;;;;;;30.50;19.00;;;;;;;8.14;79.10;102466.91;6186823;23;20001;-81
2022/05/01 01:45:46;;;;;;;29.67;18.95;;;;;;;8.07;79.30;102469.69;6185935;22;20025;-81
2022/05/01 01:51:43;;;;;;;32.35;18.70;;;;;;;8.02;79.38;102464.66;6186750;23;20055;-81
2022/05/01 01:54:19;;;;;;;30.37;18.90;;;;;;;6.47;79.80;102215.84;6183522;23;20390;-81
2022/05/01 01:56:49;;;;;;;29.67;18.02;;;;;;;7.04;79.95;102320.59;6184877;23;20248;-81
2022/05/01 01:59:15;;;;;;;28.97;19.00;;;;;;;7.97;80.18;102466.50;6186456;23;20001;-81
2022/05/01 02:01:49;;;;;;;32.95;19.02;;;;;;;7.94;80.17;102464.84;6186334;23;20065;-82
2022/05/01 02:04:45;;;;;;;33.67;19.90;;;;;;;7.96;79.97;102464.78;6186841;23;20013;-81
2022/05/01 02:51:38;;;;;;;30.92;18.05;;;;;;;5.97;82.12;102194.75;6195593;22;20059;-82
2022/05/01 03:06:43;;;;;;;32.20;18.83;;;;;;;6.65;83.81;102330.06;6244462;22;20341;-81
2022/05/01 03:16:04;;;;;;;32.80;18.67;;;;;;;6.72;84.85;102354.75;6246431;23;20491;-80
2022/05/01 03:24:09;;;;;;;28.35;18.52;;;;;;;5.58;84.75;102177.63;6246236;23;20525;-81
2022/05/01 03:27:21;;;;;;;31.92;18.98;;;;;;;7.09;84.72;102424.09;6246165;23;20027;-81
2022/05/01 03:32:54;;;;;;;33.00;19.70;;;;;;;6.42;85.42;102334.88;6246318;23;20069;-81
2022/05/01 03:35:49;;;;;;;;;;;;;;;7.01;83.56;102420.00;6247320;23;20011;-81
2022/05/01 03:38:36;;;;;;;35.78;19.92;;;;;;;5.83;85.09;102248.03;6246607;23;19908;-81
2022/05/01 03:41:19;;;;;;;33.47;19.77;;;;;;;6.30;85.46;102321.44;6245836;23;20007;-81
2022/05/01 03:43:47;;;;;;;33.13;20.05;;;;;;;5.41;85.60;102183.13;6218917;23;20464;-81
2022/05/01 03:48:51;;;;;;;32.67;20.00;;;;;;;6.68;86.35;102413.88;6214979;22;20460;-81
2022/05/01 03:51:20;;;;;;;33.28;20.20;;;;;;;5.53;86.49;102238.38;6189061;23;20338;-81
2022/05/01 03:54:04;;;;;;;34.80;20.17;;;;;;;6.01;86.73;102329.75;6215623;23;20005;-81
2022/05/01 04:00:31;;;;;;;35.22;20.65;;;;;;;5.70;87.07;102288.44;6215359;23;20019;-81
2022/05/01 04:05:33;;;;;;;35.38;20.63;;;;;;;4.76;86.97;102150.19;6189385;22;20112;-81
2022/05/01 04:08:20;;;;;;;37.25;20.48;;;;;;;6.36;87.36;102417.94;6185375;23;20232;-82
2022/05/01 04:10:46;;;;;;;39.47;21.15;;;;;;;5.25;87.65;102250.88;6185317;23;20013;-81
2022/05/01 04:15:58;;;;;;;38.33;21.98;;;;;;;6.09;87.91;102392.84;6184257;23;20017;-81
2022/05/01 04:21:38;;;;;;;41.90;21.35;;;;;;;6.21;87.67;102419.13;6181914;23;20025;-81
2022/05/01 04:24:13;;;;;;;40.13;21.63;;;;;;;4.69;88.20;102192.09;6158919;23;20382;-81
2022/05/01 04:26:56;;;;;;;43.38;21.98;;;;;;;5.17;88.24;102268.91;6185459;23;20084;-81
2022/05/01 04:33:07;;;;;;;40.50;23.35;;;;;;;6.12;88.65;102415.88;6183349;23;20036;-82
2022/05/01 04:35:51;;;;;;;35.85;20.90;;;;;;;6.07;88.58;102420.22;6178114;23;20430;-82
2022/05/01 04:38:38;;;;;;;41.10;23.08;;;;;;;6.03;88.50;102415.16;6188971;23;20001;-82
2022/05/01 04:41:25;;;;;;;42.22;22.95;;;;;;;5.99;88.66;102421.22;6187734;23;20330;-82
2022/05/01 04:47:30;;;;;;;43.33;25.33;;;;;;;4.39;88.84;102165.28;6188899;22;20040;-80
2022/05/01 04:50:08;;;;;;;40.90;23.35;;;;;;;4.52;88.92;102174.47;6187439;23;20010;-82
2022/05/01 04:52:44;;;;;;;39.83;23.00;;;;;;;4.12;88.74;102119.69;6187733;23;20005;-81
2022/05/01 04:55:09;;;;;;;44.25;23.52;;;;;;;5.96;89.04;102418.72;6187153;23;20001;-81
2022/05/01 04:57:39;;;;;;;41.38;24.85;;;;;;;4.95;89.28;102250.53;6187335;23;20012;-82
2022/05/01 05:00:38;;;;;;;44.70;25.63;;;;;;;6.03;88.99;102425.44;6187405;23;20016;-81
2022/05/01 05:03:22;;;;;;;49.33;27.58;;;;;;;4.63;89.05;102176.00;6187237;23;20001;-81
2022/05/01 05:05:48;;;;;;;47.33;27.23;;;;;;;4.59;89.01;102168.38;6153234;23;20088;-81
2022/05/01 05:11:45;;;;;;;43.00;25.70;;;;;;;5.71;89.12;102330.31;6187032;23;20040;-81
2022/05/01 05:18:09;;;;;;;46.22;25.73;;;;;;;6.47;89.08;102433.97;6195194;22;20102;-82
2022/05/01 05:20:40;;;;;;;47.47;25.88;;;;;;;5.04;88.79;102190.66;6187018;23;20338;-83
2022/05/01 05:34:37;;;;;;;42.85;24.65;;;;;;;6.76;88.18;102453.91;6203970;22;20017;-76
2022/05/01 05:57:20;;;;;;;46.65;27.35;;;;;;;8.23;83.31;102463.22;6215880;23;20096;-83
2022/05/01 06:04:04;;;;;;;46.55;26.92;;;;;;;8.70;81.15;102467.09;6124617;23;20101;-81
2022/05/01 06:06:48;;;;;;;45.78;26.15;;;;;;;7.99;80.13;102308.66;6124521;23;20014;-80
2022/05/01 06:09:18;;;;;;;46.55;26.98;;;;;;;7.56;79.13;102216.44;6100749;23;20370;-79
2022/05/01 06:11:43;;;;;;;45.17;26.35;;;;;;;7.77;78.71;102256.16;6124672;23;20017;-79
2022/05/01 06:14:16;;;;;;;45.42;27.02;;;;;;;7.85;77.97;102243.06;6135320;23;20045;-82
2022/05/01 06:16:49;;;;;;;42.03;26.10;;;;;;;8.66;78.50;102382.25;6156183;23;20437;-82
2022/05/01 06:22:23;;;;;;;49.33;28.02;;;;;;;8.79;78.49;102384.41;6113113;23;20035;-81
2022/05/01 06:24:48;;;;;;;45.03;26.50;;;;;;;8.39;77.21;102311.84;6156268;23;20037;-82
2022/05/01 06:27:58;;;;;;;43.60;25.10;;;;;;;8.09;77.52;102239.78;6130395;23;20010;-82
2022/05/01 06:30:49;;;;;;;46.05;25.60;;;;;;;8.56;76.43;102289.00;6116367;23;20028;-82
2022/05/01 06:36:45;;;;;;;41.47;25.60;;;;;;;8.63;75.57;102239.81;6216325;23;20036;-83
2022/05/01 06:39:14;;;;;;;41.63;24.92;;;;;;;9.28;75.37;102326.16;6216302;23;19997;-84
2022/05/01 06:41:46;;;;;;;41.50;25.15;;;;;;;8.78;74.42;102245.38;6189690;23;20035;-83
2022/05/01 06:46:41;;;;;;;42.45;24.65;;;;;;;9.56;74.56;102372.47;6186800;22;20087;-82
2022/05/01 07:30:54;;;;;;;37.78;24.48;;;;;;;12.66;67.38;102468.75;6203137;22;20028;-80
2022/05/01 07:34:04;;;;;;;40.03;23.00;;;;;;;12.86;66.17;102466.06;6159233;23;20386;-81
2022/05/01 07:36:52;;;;;;;40.03;23.63;;;;;;;13.08;65.76;102471.13;6185831;23;20000;-81
2022/05/01 07:39:33;;;;;;;40.92;24.98;;;;;;;12.51;64.74;102383.94;6186087;23;20044;-80
2022/05/01 07:42:42;;;;;;;36.55;23.15;;;;;;;13.02;64.93;102467.97;6186001;23;20052;-81
2022/05/01 07:45:48;;;;;;;39.60;23.00;;;;;;;13.19;63.86;102476.66;6185697;23;20331;-81
2022/05/01 08:01:55;;;;;;;37.67;21.98;;;;;;;11.96;62.86;102231.91;6185220;23;20009;-79
2022/05/01 08:07:37;;;;;;;33.53;22.05;;;;;;;13.25;62.27;102467.72;6185409;23;20036;-80
2022/05/01 08:10:26;;;;;;;33.13;20.90;;;;;;;13.45;62.45;102472.78;6185092;23;20005;-80
2022/05/01 09:07:40;;;;;;;17.20;11.20;;;;;;;15.22;46.37;102366.34;6187239;23;20048;-80
2022/05/01 09:27:32;;;;;;;16.15;8.85;;;;;;;16.63;41.81;102435.09;6187088;23;20024;-81
2022/05/01 11:38:48;;;;;;;17.13;10.85;;;;;;;17.72;37.37;102350.50;6185312;23;20068;-81
2022/05/01 13:18:15;;;;;;;15.45;10.32;;;;;;;17.28;35.53;102228.16;6186900;23;20040;-85
2022/05/01 13:49:34;;;;;;;15.50;9.95;;;;;;;17.93;35.87;102248.84;6186714;23;20087;-79
2022/05/01 13:58:49;;;;;;;15.52;9.70;;;;;;;16.55;35.44;102066.19;5983468;23;20086;-80
2022/05/01 14:01:17;;;;;;;18.50;10.63;;;;;;;17.13;34.71;102170.03;6009565;23;20011;-79
2022/05/01 14:07:44;;;;;;;18.15;11.10;;;;;;;17.43;35.66;102234.09;6009279;23;20440;-80
2022/05/01 14:10:18;;;;;;;15.77;10.65;;;;;;;16.41;36.08;102084.53;6009742;23;20053;-78
2022/05/01 14:16:05;;;;;;;15.98;10.30;;;;;;;16.10;35.95;102051.88;6009530;23;20027;-81
2022/05/01 14:24:46;;;;;;;17.55;11.95;;;;;;;16.71;36.50;102233.75;6009354;23;20053;-80
2022/05/01 14:27:15;;;;;;;18.08;11.65;;;;;;;16.23;37.36;102157.00;6009134;23;20022;-78
2022/05/01 14:30:01;;;;;;;;;;;;;;;;;;;;;
2022/05/01 14:35:51;;;;;;;18.90;11.15;;;;;;;17.01;36.76;102227.41;6116778;23;20019;-80
2022/05/01 14:42:20;;;;;;;15.73;11.02;;;;;;;17.43;36.99;102215.81;6185805;23;20025;-82
2022/05/01 14:51:15;;;;;;;17.17;10.30;;;;;;;17.72;35.86;102208.59;6178008;22;20017;-81
2022/05/01 15:24:14;;;;;;;16.17;10.98;;;;;;;17.19;36.25;102203.50;6185822;23;20013;-81
2022/05/01 15:29:48;;;;;;;14.82;10.00;;;;;;;16.58;36.26;102123.34;6008539;23;20095;-81
2022/05/01 15:36:03;;;;;;;16.55;9.70;;;;;;;15.55;36.29;101977.38;6009103;23;20030;-81
2022/05/01 15:39:15;;;;;;;18.10;10.32;;;;;;;16.63;36.10;102200.34;6009283;23;20012;-81
2022/05/01 15:45:08;;;;;;;13.50;9.82;;;;;;;15.81;37.61;102108.50;6008653;23;20147;-81
2022/05/01 15:48:05;;;;;;;16.45;10.80;;;;;;;16.34;37.30;102197.06;6008876;23;20433;-81
2022/05/01 15:53:42;;;;;;;15.65;9.77;;;;;;;14.89;36.78;101976.38;6007272;23;20361;-81
2022/05/01 15:56:11;;;;;;;17.42;10.30;;;;;;;15.62;36.87;102116.66;5517314;22;15237280;-79
2022/05/01 15:58:55;;;;;;;16.20;10.25;;;;;;;15.15;37.26;102042.41;6155122;23;20301;-77
2022/05/01 16:01:28;;;;;;;16.05;10.10;;;;;;;14.79;37.16;101986.53;6129724;23;20001;-79
2022/05/01 16:17:54;;;;;;;15.35;10.13;;;;;;;14.91;38.17;102006.56;6155856;23;20021;-81
2022/05/01 16:20:26;;;;;;;14.70;9.77;;;;;;;15.24;37.53;102111.22;6008594;23;20046;-81
2022/05/01 16:26:14;;;;;;;15.95;9.98;;;;;;;13.96;38.85;101964.72;6008696;23;20031;-81
2022/05/01 16:29:16;;;;;;;18.25;9.98;;;;;;;14.71;38.75;102094.53;6008217;23;20047;-80
2022/05/01 16:32:17;;;;;;;15.88;10.65;;;;;;;15.05;38.44;102177.41;6008543;23;20020;-80
2022/05/01 16:35:05;;;;;;;14.87;9.80;;;;;;;14.91;38.94;102167.81;6007995;23;20446;-81
2022/05/01 16:38:07;;;;;;;21.80;9.93;;;;;;;13.68;40.25;101972.44;5984808;23;20112;-81
2022/05/01 16:40:54;;;;;;;16.70;10.75;;;;;;;13.76;39.33;101985.78;5925448;24;20013;-80
2022/05/01 16:52:57;;;;;;;15.50;10.63;;;;;;;14.03;39.81;102082.88;6010396;23;20489;-80
2022/05/01 17:08:44;;;;;;;16.80;10.30;;;;;;;14.45;40.40;102156.69;6010293;23;20050;-83
2022/05/01 17:15:11;;;;;;;14.43;9.30;;;;;;;14.47;41.77;102162.66;5953641;24;20028;-81
2022/05/01 17:21:12;;;;;;;17.30;11.32;;;;;;;14.43;41.07;102161.09;6011135;23;20527;-80
2022/05/01 17:24:03;;;;;;;17.35;10.25;;;;;;;14.39;41.77;102159.63;6009856;23;20012;-80
2022/05/01 17:26:44;;;;;;;;;;;;;;;14.43;42.21;102155.91;6012499;23;20068;-80
2022/05/01 17:29:31;;;;;;;15.65;9.45;;;;;;;13.73;41.72;102074.22;6009556;23;19992;-80
2022/05/01 17:41:57;;;;;;;15.60;9.82;;;;;;;12.39;46.37;101941.50;5907920;24;20026;-79
2022/05/01 17:48:07;;;;;;;18.25;10.23;;;;;;;13.40;48.24;102160.81;5898586;24;20066;-81
2022/05/01 17:50:33;;;;;;;15.98;9.52;;;;;;;13.25;47.11;102156.44;5898893;24;20010;-83
2022/05/01 17:53:06;;;;;;;17.45;10.15;;;;;;;12.41;48.29;102030.38;5876071;24;20021;-81
2022/05/01 17:55:33;;;;;;;17.05;9.35;;;;;;;11.95;49.79;101961.03;5898899;24;20025;-82
2022/05/01 17:58:05;;;;;;;16.40;10.23;;;;;;;12.48;45.43;102049.81;5958668;23;20019;-80
2022/05/01 18:01:08;;;;;;;17.00;10.13;;;;;;;13.22;47.28;102159.19;6009270;23;20012;-80
2022/05/01 18:10:22;;;;;;;17.00;9.97;;;;;;;11.98;48.45;101967.78;6186508;22;20021;-80
2022/05/01 18:16:38;;;;;;;16.08;10.30;;;;;;;13.06;50.27;102166.91;6037318;23;20027;-80
2022/05/01 18:19:37;;;;;;;15.75;9.82;;;;;;;12.98;49.54;102160.44;6093613;22;20124;-81
2022/05/01 18:22:33;;;;;;;19.60;11.45;;;;;;;11.74;49.69;101975.84;6181945;23;20430;-81
2022/05/01 18:25:25;;;;;;;17.65;10.75;;;;;;;12.83;47.95;102165.50;6186203;23;20005;-79
2022/05/01 18:27:59;;;;;;;20.73;11.82;;;;;;;12.76;47.50;102155.50;6186616;23;20008;-80
2022/05/01 18:30:46;;;;;;;16.67;10.40;;;;;;;12.60;50.30;102163.25;6186238;23;20005;-80
2022/05/01 18:33:39;;;;;;;19.63;11.23;;;;;;;12.61;48.69;102162.31;6185936;23;20067;-79
2022/05/01 18:36:31;;;;;;;18.00;10.65;;;;;;;12.58;49.46;102170.22;6144199;23;20005;-78
2022/05/01 18:39:37;;;;;;;18.83;11.10;;;;;;;12.50;50.98;102168.03;6186213;23;20001;-80
2022/05/01 18:49:00;;;;;;;16.88;10.43;;;;;;;12.14;53.79;102175.00;6185727;23;20020;-80
2022/05/01 18:51:42;;;;;;;17.67;10.43;;;;;;;11.01;55.29;102015.56;6153403;23;20016;-82
2022/05/01 18:54:35;;;;;;;16.02;10.18;;;;;;;12.04;55.03;102185.81;6153471;23;20009;-81
2022/05/01 18:57:13;;;;;;;20.80;11.02;;;;;;;11.42;57.02;102109.34;6123921;23;20455;-81
2022/05/01 19:17:24;;;;;;;18.73;11.40;;;;;;;11.25;60.48;102201.50;6040159;23;20034;-79
2022/05/01 19:20:27;;;;;;;17.35;11.10;;;;;;;11.09;60.41;102207.34;6037460;23;20011;-79
2022/05/01 19:26:59;;;;;;;19.13;11.88;;;;;;;10.86;61.21;102208.31;6037131;23;20094;-79
2022/05/01 19:53:58;;;;;;;21.58;13.10;;;;;;;9.71;65.01;102208.56;6066031;23;20474;-78
2022/05/01 19:56:24;;;;;;;18.65;11.43;;;;;;;9.61;66.43;102210.66;6078632;23;20038;-74
2022/05/01 19:58:52;;;;;;;19.70;13.55;;;;;;;9.53;67.06;102211.81;6094838;23;20154;-75
2022/05/01 20:01:19;;;;;;;17.70;12.48;;;;;;;9.31;67.59;102201.44;6094340;23;20081;-81
2022/05/01 20:03:47;;;;;;;20.08;13.35;;;;;;;9.33;68.00;102208.22;6070135;23;20011;-80
2022/05/01 20:06:14;;;;;;;22.83;12.90;;;;;;;9.02;68.76;102168.97;6094244;23;20159;-81
2022/05/01 20:08:44;;;;;;;19.65;12.25;;;;;;;9.17;68.98;102217.41;6094295;23;20069;-81
2022/05/01 20:11:11;;;;;;;21.27;13.13;;;;;;;9.00;68.86;102181.91;6123977;23;20010;-82
2022/05/01 20:13:37;;;;;;;20.88;13.10;;;;;;;8.74;69.00;102154.47;6125730;23;20329;-81
2022/05/01 20:16:18;;;;;;;19.30;12.60;;;;;;;9.03;69.20;102206.72;6158584;23;20001;-82
2022/05/01 20:19:02;;;;;;;19.50;12.17;;;;;;;8.79;69.17;102190.38;6185311;23;20005;-80
2022/05/01 20:21:43;;;;;;;20.60;12.48;;;;;;;8.89;69.17;102204.63;6185532;23;20005;-81
2022/05/01 20:24:46;;;;;;;20.15;13.25;;;;;;;8.82;69.54;102213.44;6185179;23;20435;-81
2022/05/01 20:27:30;;;;;;;23.17;13.90;;;;;;;8.74;69.98;102205.13;6185394;23;20573;-81
2022/05/01 20:30:10;;;;;;;23.08;12.52;;;;;;;8.46;70.83;102174.34;6185211;23;20380;-81
2022/05/01 20:32:54;;;;;;;22.45;12.68;;;;;;;8.59;70.73;102212.50;6185791;23;20002;-81
2022/05/01 20:35:20;;;;;;;19.85;12.98;;;;;;;8.48;71.58;102206.84;6184612;23;20434;-81
2022/05/01 20:38:13;;;;;;;19.88;13.05;;;;;;;8.50;71.71;102214.50;6185559;23;20000;-81
2022/05/01 20:40:42;;;;;;;20.90;13.85;;;;;;;8.19;72.14;102176.00;6185298;23;20005;-80
2022/05/01 20:43:26;;;;;;;21.98;13.82;;;;;;;8.44;71.59;102218.13;6185070;23;20304;-79
2022/05/01 20:46:22;;;;;;;24.63;14.30;;;;;;;8.41;71.92;102205.34;6185330;23;20005;-81
2022/05/01 20:49:25;;;;;;;23.80;13.40;;;;;;;8.44;71.89;102214.69;6173247;23;20009;-80
2022/05/01 20:51:56;;;;;;;23.20;13.93;;;;;;;8.20;73.61;102199.13;6185287;23;20012;-80
2022/05/01 20:54:34;;;;;;;24.02;13.02;;;;;;;8.30;74.24;102215.97;6185624;23;20011;-81
2022/05/01 20:57:02;;;;;;;19.90;14.13;;;;;;;7.98;74.08;102174.94;6184735;23;20481;-80
2022/05/01 20:59:28;;;;;;;22.23;13.50;;;;;;;7.96;74.97;102189.56;6158591;23;20059;-79
2022/05/01 21:01:55;;;;;;;22.98;13.63;;;;;;;7.89;74.94;102181.22;6185248;23;20453;-79
2022/05/01 21:04:23;;;;;;;25.90;15.68;;;;;;;7.98;74.54;102198.94;6184589;23;20056;-79
2022/05/01 21:12:29;;;;;;;23.60;14.63;;;;;;;7.99;73.94;102210.06;6184882;23;20446;-79
2022/05/01 21:14:54;;;;;;;25.42;15.30;;;;;;;6.31;75.31;101952.88;6067097;23;20023;-79
2022/05/01 21:17:57;;;;;;;27.38;16.08;;;;;;;6.34;74.47;101957.91;6065514;23;20010;-80
2022/05/01 21:20:31;;;;;;;27.77;17.45;;;;;;;6.41;75.17;101967.13;6063963;23;20528;-79
2022/05/01 21:32:25;;;;;;;29.08;18.05;;;;;;;7.70;76.07;102198.91;6067051;23;20624;-80
2022/05/01 21:34:57;;;;;;;26.27;17.05;;;;;;;6.72;76.21;102050.97;6066993;23;20010;-80
2022/05/01 21:37:23;;;;;;;25.20;16.40;;;;;;;6.83;76.21;102066.94;6066723;23;20071;-81
2022/05/01 21:39:57;;;;;;;24.30;16.23;;;;;;;6.19;76.58;101968.56;6067162;23;20010;-79
2022/05/01 21:42:23;;;;;;;26.73;16.80;;;;;;;7.59;76.96;102195.81;6066992;23;20011;-79
2022/05/01 21:44:57;;;;;;;27.30;16.95;;;;;;;7.52;76.98;102191.72;6066782;23;20006;-80
2022/05/01 21:47:45;;;;;;;26.20;16.90;;;;;;;7.53;76.70;102190.84;6066857;23;20007;-80
2022/05/01 21:50:10;;;;;;;30.25;17.70;;;;;;;5.96;76.92;101951.22;6071148;23;20011;-79
2022/05/01 21:52:54;;;;;;;25.20;16.38;;;;;;;7.42;76.87;102191.13;6186818;23;20312;-79
2022/05/01 21:58:17;;;;;;;23.90;17.38;;;;;;;6.74;77.36;102098.81;6186734;23;20485;-79
2022/05/01 22:00:58;;;;;;;28.33;17.15;;;;;;;5.83;77.35;101940.41;6186641;23;20080;-79
2022/05/01 22:03:36;;;;;;;27.48;17.45;;;;;;;6.14;78.15;102021.72;6186985;23;20076;-79
2022/05/01 22:06:03;;;;;;;30.77;17.55;;;;;;;7.15;78.29;102176.47;6186433;23;20201;-80
2022/05/01 22:08:47;;;;;;;26.58;17.85;;;;;;;5.72;77.99;101938.13;6186122;23;20132;-79
2022/05/01 22:11:12;;;;;;;25.75;16.60;;;;;;;6.02;78.59;102003.22;6185902;23;20100;-79
2022/05/01 22:13:52;;;;;;;28.85;17.73;;;;;;;5.76;78.50;101957.66;6186553;23;20098;-79
2022/05/01 22:16:18;;;;;;;31.27;18.52;;;;;;;6.99;79.32;102177.78;6186697;23;20067;-79
2022/05/01 22:18:43;;;;;;;26.67;17.73;;;;;;;6.96;79.79;102183.81;6186383;23;20033;-79
2022/05/01 22:21:24;;;;;;;31.17;18.40;;;;;;;6.74;79.69;102151.88;6185810;23;20015;-79
2022/05/01 22:23:58;;;;;;;25.27;17.38;;;;;;;5.38;79.77;101943.22;6186311;23;20481;-80
2022/05/01 22:26:26;;;;;;;30.77;19.65;;;;;;;6.70;80.09;102178.53;6185982;23;20450;-79
2022/05/01 22:28:51;;;;;;;31.67;19.13;;;;;;;5.74;79.73;102013.25;6186441;23;20047;-79
2022/05/01 22:31:19;;;;;;;31.65;18.85;;;;;;;6.68;79.86;102175.97;6186242;23;20001;-79
2022/05/01 22:33:47;;;;;;;28.27;18.02;;;;;;;6.55;79.86;102161.78;6186556;23;20056;-79
2022/05/01 22:38:57;;;;;;;28.92;18.50;;;;;;;6.53;80.26;102179.78;6185729;23;20092;-79
2022/05/01 22:41:23;;;;;;;28.65;18.10;;;;;;;6.51;80.37;102180.72;6185897;23;20434;-79
2022/05/01 22:43:49;;;;;;;30.98;18.77;;;;;;;6.31;80.84;102156.38;6186362;23;20008;-80
2022/05/01 22:46:14;;;;;;;30.13;18.30;;;;;;;6.19;80.90;102148.94;6185761;23;20383;-79
2022/05/01 22:48:39;;;;;;;30.02;19.08;;;;;;;6.34;80.82;102183.66;6185894;23;20012;-79
2022/05/01 22:51:05;;;;;;;33.53;19.45;;;;;;;5.87;81.37;102111.22;6185961;23;20080;-80
2022/05/01 22:53:30;;;;;;;26.67;18.60;;;;;;;6.21;81.58;102175.44;6185644;23;20001;-80
2022/05/01 22:55:56;;;;;;;28.95;18.98;;;;;;;6.19;81.34;102174.59;6186262;23;20005;-79
2022/05/01 22:58:22;;;;;;;30.33;20.00;;;;;;;5.82;81.27;102128.44;6186203;23;20001;-79
2022/05/01 23:00:49;;;;;;;28.20;19.05;;;;;;;6.06;81.34;102183.47;6186092;23;20000;-79
2022/05/01 23:03:14;;;;;;;32.38;19.55;;;;;;;6.10;82.74;102174.84;6185869;23;20024;-79
2022/05/01 23:05:40;;;;;;;37.05;18.48;;;;;;;6.14;82.66;102175.59;6186009;23;20001;-79
2022/05/01 23:08:08;;;;;;;32.03;19.17;;;;;;;6.00;82.51;102160.53;6186074;23;20007;-79
2022/05/01 23:10:35;;;;;;;29.63;19.05;;;;;;;6.10;82.39;102179.13;6185683;23;20080;-79
2022/05/01 23:13:01;;;;;;;32.00;19.30;;;;;;;5.76;82.64;102136.25;6186211;23;20070;-79
2022/05/01 23:18:01;;;;;;;34.60;19.50;;;;;;;5.24;82.57;102062.22;6245311;23;20468;-80
2022/05/01 23:23:26;;;;;;;32.08;18.77;;;;;;;5.71;82.61;102156.03;6246031;23;20069;-80
2022/05/01 23:25:53;;;;;;;29.00;19.58;;;;;;;5.77;82.75;102171.25;6246336;23;20054;-79
2022/05/01 23:28:27;;;;;;;31.23;20.23;;;;;;;4.55;83.12;101977.44;6246023;23;20063;-79
2022/05/01 23:30:53;;;;;;;30.67;20.20;;;;;;;4.96;83.10;102049.16;6246424;23;20033;-80
2022/05/01 23:33:24;;;;;;;32.88;21.33;;;;;;;5.24;83.24;102109.16;6246276;23;20004;-80
2022/05/01 23:35:49;;;;;;;33.28;21.23;;;;;;;4.66;82.84;102013.06;6246418;23;20078;-80
2022/05/01 23:38:24;;;;;;;33.45;21.05;;;;;;;4.06;83.18;101915.31;6245926;23;20008;-80
2022/05/01 23:40:49;;;;;;;31.00;20.30;;;;;;;3.90;83.29;101892.59;6246138;23;20000;-80
2022/05/01 23:43:30;;;;;;;32.75;21.58;;;;;;;3.87;82.79;101894.38;6245754;23;20026;-79
2022/05/01 23:45:55;;;;;;;35.92;22.98;;;;;;;5.45;83.58;102162.53;6245990;23;20050;-79
2022/05/01 23:48:21;;;;;;;35.03;21.83;;;;;;;5.43;83.59;102166.84;6246165;23;20004;-80
2022/05/01 23:50:49;;;;;;;34.38;21.55;;;;;;;4.02;83.23;101942.63;6245927;23;20061;-80
2022/05/01 23:53:21;;;;;;;35.33;21.98;;;;;;;4.59;83.38;102042.16;6245737;23;20030;-80
2022/05/01 23:55:47;;;;;;;33.92;22.00;;;;;;;4.96;83.52;102090.94;6245863;23;20008;-79
2022/05/01 23:58:37;;;;;;;37.08;23.17;;;;;;;5.34;83.40;102153.38;6245796;23;20046;-80
